createdAt,value
2022-08-05T00:01:27.972Z,94707.38
2022-08-05T00:03:57.234Z,94710.06
2022-08-05T00:06:32.462Z,94717.78
2022-08-05T00:09:00.630Z,94710.06
2022-08-05T00:11:30.516Z,94711.13
2022-08-05T00:14:02.395Z,94710.84
2022-08-05T00:16:53.740Z,94706.56
2022-08-05T00:19:24.975Z,94705.78
2022-08-05T00:21:59.697Z,94703.09
2022-08-05T00:24:31.041Z,94703.09
2022-08-05T00:26:58.834Z,94699.34
2022-08-05T00:29:26.080Z,94698.81
2022-08-05T00:32:13.109Z,94700.44
2022-08-05T00:35:03.547Z,94697.75
2022-08-05T00:37:35.414Z,94696.16
2022-08-05T00:40:17.861Z,94694.25
2022-08-05T00:42:54.347Z,94689.97
2022-08-05T00:45:25.035Z,94690.78
2022-08-05T00:48:06.925Z,94689.97
2022-08-05T00:50:34.190Z,94696.16
2022-08-05T00:53:00.888Z,94705.25
2022-08-05T00:55:42.376Z,94698.00
2022-08-05T00:58:11.526Z,94690.78
2022-08-05T01:00:38.382Z,94696.16
2022-08-05T01:03:07.953Z,94692.94
2022-08-05T01:05:35.016Z,94692.94
2022-08-05T01:08:41.774Z,94688.38
2022-08-05T01:10:54.340Z,94692.94
2022-08-05T01:13:27.429Z,94698.31
2022-08-05T01:16:14.745Z,94698.31
2022-08-05T01:18:56.142Z,94699.09
2022-08-05T01:21:50.691Z,94698.00
2022-08-05T01:24:35.918Z,94697.50
2022-08-05T01:27:19.162Z,94703.66
2022-08-05T01:29:47.431Z,94703.66
2022-08-05T01:32:18.432Z,94702.03
2022-08-05T01:35:51.697Z,94698.84
2022-08-05T01:38:09.067Z,94700.44
2022-08-05T01:40:51.921Z,94701.25
2022-08-05T01:43:22.218Z,94704.19
2022-08-05T01:45:56.599Z,94703.13
2022-08-05T01:48:25.347Z,94704.19
2022-08-05T01:50:52.039Z,94705.78
2022-08-05T01:53:54.548Z,94704.19
2022-08-05T01:56:06.084Z,94706.09
2022-08-05T01:58:45.256Z,94709.53
2022-08-05T02:01:13.313Z,94706.34
2022-08-05T02:03:43.577Z,94705.78
2022-08-05T02:06:37.008Z,94700.22
2022-08-05T02:08:58.857Z,94697.53
2022-08-05T02:11:33.382Z,94707.16
2022-08-05T02:14:12.366Z,94706.34
2022-08-05T02:16:46.849Z,94707.44
2022-08-05T02:19:24.952Z,94707.44
2022-08-05T02:22:26.628Z,94703.16
2022-08-05T02:25:00.077Z,94704.75
2022-08-05T02:27:29.970Z,94699.41
2022-08-05T02:30:13.900Z,94696.72
2022-08-05T02:32:40.550Z,94697.81
2022-08-05T02:35:14.068Z,94697.81
2022-08-05T02:37:41.956Z,94706.34
2022-08-05T02:40:09.599Z,94688.44
2022-08-05T02:42:36.907Z,94696.19
2022-08-05T02:45:03.878Z,94697.00
2022-08-05T02:47:36.553Z,94695.38
2022-08-05T02:50:18.195Z,94700.75
2022-08-05T02:52:44.963Z,94695.38
2022-08-05T02:55:12.452Z,94696.19
2022-08-05T02:58:10.735Z,94693.00
2022-08-05T03:00:26.957Z,94696.75
2022-08-05T03:02:53.735Z,94691.94
2022-08-05T03:05:21.935Z,94693.00
2022-08-05T03:08:08.761Z,94695.69
2022-08-05T03:10:36.369Z,94694.59
2022-08-05T03:15:31.633Z,94701.03
2022-08-05T03:18:00.586Z,94698.34
2022-08-05T03:20:27.243Z,94709.06
2022-08-05T03:22:55.349Z,94703.72
2022-08-05T03:25:33.508Z,94703.72
2022-08-05T03:28:14.089Z,94696.75
2022-08-05T03:30:41.095Z,94706.38
2022-08-05T03:33:08.873Z,94703.72
2022-08-05T03:35:41.070Z,94694.09
2022-08-05T03:38:10.551Z,94695.69
2022-08-05T03:40:40.809Z,94698.34
2022-08-05T03:43:58.760Z,94702.91
2022-08-05T03:45:57.255Z,94698.63
2022-08-05T03:48:27.406Z,94696.75
2022-08-05T03:52:35.090Z,94698.34
2022-08-05T03:55:52.021Z,94696.75
2022-08-05T03:56:54.328Z,94699.13
2022-08-05T03:59:47.596Z,94699.97
2022-08-05T04:02:37.723Z,94703.16
2022-08-05T04:05:09.664Z,94697.50
2022-08-05T04:07:37.015Z,94695.06
2022-08-05T04:10:23.611Z,94697.72
2022-08-05T04:12:54.245Z,94706.81
2022-08-05T04:15:24.447Z,94707.88
2022-08-05T04:17:57.361Z,94698.75
2022-08-05T04:20:29.015Z,94701.94
2022-08-05T04:22:55.616Z,94697.63
2022-08-05T04:25:24.269Z,94698.16
2022-08-05T04:28:11.292Z,94704.56
2022-08-05T04:30:39.465Z,94693.56
2022-08-05T04:33:06.351Z,94695.97
2022-08-05T04:36:11.382Z,94699.16
2022-08-05T04:38:20.953Z,94689.25
2022-08-05T04:40:50.779Z,94697.00
2022-08-05T04:43:17.772Z,94692.47
2022-08-05T04:45:55.003Z,94694.84
2022-08-05T04:48:27.501Z,94700.75
2022-08-05T04:51:02.051Z,94692.69
2022-08-05T04:53:33.540Z,94698.84
2022-08-05T04:56:15.064Z,94702.03
2022-08-05T04:58:48.821Z,94698.28
2022-08-05T05:01:15.762Z,94701.47
2022-08-05T05:04:02.311Z,94695.84
2022-08-05T05:06:39.069Z,94696.38
2022-08-05T05:09:16.896Z,94697.97
2022-08-05T05:11:54.102Z,94690.44
2022-08-05T05:14:28.215Z,94692.56
2022-08-05T05:16:59.851Z,94694.19
2022-08-05T05:19:36.341Z,94694.69
2022-08-05T05:22:23.153Z,94690.94
2022-08-05T05:24:57.842Z,94688.75
2022-08-05T05:27:44.730Z,94690.88
2022-08-05T05:30:30.825Z,94689.78
2022-08-05T05:33:03.828Z,94686.56
2022-08-05T05:35:42.538Z,94692.47
2022-08-05T05:38:13.390Z,94690.31
2022-08-05T05:40:49.772Z,94688.13
2022-08-05T05:43:51.474Z,94691.34
2022-08-05T05:46:17.520Z,94689.16
2022-08-05T05:48:47.722Z,94695.06
2022-08-05T05:51:21.963Z,94693.97
2022-08-05T05:53:57.828Z,94688.63
2022-08-05T05:56:32.347Z,94689.66
2022-08-05T05:59:03.494Z,94695.00
2022-08-05T06:01:37.447Z,94699.81
2022-08-05T06:04:05.612Z,94695.25
2022-08-05T06:06:34.655Z,94690.66
2022-08-05T06:09:04.294Z,94697.63
2022-08-05T06:11:33.997Z,94703.50
2022-08-05T06:14:01.178Z,94695.47
2022-08-05T06:16:32.595Z,94696.50
2022-08-05T06:19:01.118Z,94698.88
2022-08-05T06:21:36.855Z,94705.06
2022-08-05T06:24:11.721Z,94700.78
2022-08-05T06:26:51.359Z,94698.88
2022-08-05T06:29:24.993Z,94702.38
2022-08-05T06:32:17.243Z,94705.06
2022-08-05T06:34:53.630Z,94697.81
2022-08-05T06:37:39.462Z,94695.94
2022-08-05T06:40:13.036Z,94695.94
2022-08-05T06:42:40.424Z,94694.59
2022-08-05T06:45:08.302Z,94698.06
2022-08-05T06:48:37.245Z,94700.72
2022-08-05T06:50:22.405Z,94691.59
2022-08-05T06:52:58.617Z,94693.78
2022-08-05T06:55:30.311Z,94695.38
2022-08-05T06:58:19.786Z,94691.59
2022-08-05T07:00:50.052Z,94690.00
2022-08-05T07:03:16.782Z,94684.63
2022-08-05T07:05:43.759Z,94692.69
2022-08-05T07:08:12.953Z,94691.59
2022-08-05T07:10:52.345Z,94693.19
2022-08-05T07:13:57.688Z,94698.34
2022-08-05T07:17:59.044Z,94691.34
2022-08-05T07:22:17.217Z,94694.84
2022-08-05T07:24:53.606Z,94693.78
2022-08-05T07:27:21.531Z,94695.38
2022-08-05T07:30:28.171Z,94690.56
2022-08-05T07:32:36.324Z,94690.56
2022-08-05T07:36:04.202Z,94690.84
2022-08-05T07:37:54.836Z,94693.84
2022-08-05T07:40:26.659Z,94685.78
2022-08-05T07:42:59.369Z,94691.16
2022-08-05T07:45:57.164Z,94689.56
2022-08-05T07:49:02.124Z,94686.88
2022-08-05T07:51:05.658Z,94683.94
2022-08-05T07:53:51.287Z,94688.50
2022-08-05T07:56:38.998Z,94681.03
2022-08-05T07:59:08.444Z,94684.00
2022-08-05T08:01:35.433Z,94678.13
2022-08-05T08:04:08.369Z,94681.59
2022-08-05T08:06:37.514Z,94690.72
2022-08-05T08:09:04.186Z,94684.84
2022-08-05T08:11:49.500Z,94680.59
2022-08-05T08:14:19.680Z,94689.72
2022-08-05T08:16:51.379Z,94685.41
2022-08-05T08:20:10.277Z,94681.66
2022-08-05T08:22:07.618Z,94683.81
2022-08-05T08:24:51.573Z,94683.28
2022-08-05T08:27:18.776Z,94683.59
2022-08-05T08:30:05.838Z,94682.00
2022-08-05T08:32:34.515Z,94675.81
2022-08-05T08:35:07.487Z,94673.16
2022-08-05T08:37:40.568Z,94676.09
2022-08-05T08:40:12.057Z,94674.50
2022-08-05T08:42:50.273Z,94671.81
2022-08-05T08:45:26.720Z,94676.41
2022-08-05T08:48:07.319Z,94675.59
2022-08-05T08:51:03.069Z,94673.16
2022-08-05T08:53:27.979Z,94672.34
2022-08-05T08:56:04.493Z,94671.56
2022-08-05T08:58:43.644Z,94669.16
2022-08-05T09:01:15.951Z,94666.47
2022-08-05T09:03:45.169Z,94665.66
2022-08-05T09:06:15.806Z,94659.22
2022-08-05T09:08:47.234Z,94663.00
2022-08-05T09:11:15.155Z,94663.00
2022-08-05T09:14:09.885Z,94658.72
2022-08-05T09:16:28.633Z,94653.09
2022-08-05T09:18:55.945Z,94643.72
2022-08-05T09:22:24.961Z,94649.59
2022-08-05T09:24:15.405Z,94636.50
2022-08-05T09:26:43.689Z,94643.72
2022-08-05T09:29:10.976Z,94633.00
2022-08-05T09:32:42.125Z,94633.00
2022-08-05T09:34:53.344Z,94633.81
2022-08-05T09:38:12.272Z,94633.00
2022-08-05T09:40:36.460Z,94635.69
2022-08-05T09:43:08.593Z,94623.38
2022-08-05T09:46:07.915Z,94631.41
2022-08-05T09:48:30.396Z,94629.03
2022-08-05T09:50:59.106Z,94624.44
2022-08-05T09:53:54.413Z,94613.75
2022-08-05T09:56:14.131Z,94625.28
2022-08-05T09:58:41.916Z,94619.09
2022-08-05T10:01:15.120Z,94612.13
2022-08-05T10:03:58.682Z,94614.81
2022-08-05T10:06:27.805Z,94612.13
2022-08-05T10:08:55.627Z,94600.91
2022-08-05T10:11:22.831Z,94605.19
2022-08-05T10:13:54.511Z,94599.00
2022-08-05T10:16:37.730Z,94597.16
2022-08-05T10:19:10.135Z,94594.47
2022-08-05T10:21:40.457Z,94602.50
2022-08-05T10:24:11.077Z,94598.75
2022-08-05T10:26:51.415Z,94596.06
2022-08-05T10:29:24.114Z,94593.38
2022-08-05T10:33:02.201Z,94590.19
2022-08-05T10:34:54.028Z,94585.09
2022-08-05T10:37:23.490Z,94591.28
2022-08-05T10:40:17.513Z,94587.50
2022-08-05T10:42:45.221Z,94588.59
2022-08-05T10:45:23.218Z,94578.97
2022-08-05T10:48:31.877Z,94580.56
2022-08-05T10:51:21.975Z,94581.34
2022-08-05T10:54:01.774Z,94578.97
2022-08-05T10:56:43.912Z,94578.16
2022-08-05T11:00:01.311Z,94571.19
2022-08-05T11:02:14.739Z,94567.44
2022-08-05T11:04:56.023Z,94565.84
2022-08-05T11:07:33.109Z,94561.28
2022-08-05T11:10:21.597Z,94561.28
2022-08-05T11:12:50.723Z,94558.63
2022-08-05T11:15:21.724Z,94556.72
2022-08-05T11:18:00.151Z,94555.94
2022-08-05T11:20:34.562Z,94550.56
2022-08-05T11:23:10.516Z,94545.22
2022-08-05T11:26:05.418Z,94554.84
2022-08-05T11:28:25.418Z,94555.94
2022-08-05T11:30:58.537Z,94547.09
2022-08-05T11:33:52.359Z,94553.25
2022-08-05T11:36:34.286Z,94550.56
2022-08-05T11:39:08.169Z,94532.91
2022-08-05T11:42:01.462Z,94529.16
2022-08-05T11:44:52.801Z,94529.16
2022-08-05T11:47:22.207Z,94536.88
2022-08-05T11:50:07.509Z,94529.94
2022-08-05T11:52:34.250Z,94534.50
2022-08-05T11:55:07.749Z,94535.00
2022-08-05T11:57:39.325Z,94532.91
2022-08-05T12:00:28.847Z,94529.16
2022-08-05T12:02:56.591Z,94513.06
2022-08-05T12:05:32.235Z,94518.44
2022-08-05T12:08:09.810Z,94513.06
2022-08-05T12:10:43.521Z,94523.78
2022-08-05T12:13:17.485Z,94514.66
2022-08-05T12:15:55.826Z,94517.34
2022-08-05T12:18:33.148Z,94510.91
2022-08-05T12:21:13.882Z,94514.66
2022-08-05T12:23:58.414Z,94514.66
2022-08-05T12:26:40.913Z,94520.53
2022-08-05T12:29:22.890Z,94510.09
2022-08-05T12:31:55.171Z,94503.94
2022-08-05T12:34:25.726Z,94514.66
2022-08-05T12:36:57.527Z,94499.69
2022-08-05T12:39:27.969Z,94504.72
2022-08-05T12:42:01.435Z,94500.19
2022-08-05T12:44:33.893Z,94500.69
2022-08-05T12:47:01.858Z,94498.28
2022-08-05T12:50:03.389Z,94486.78
2022-08-05T12:52:38.129Z,94485.69
2022-08-05T12:55:22.494Z,94485.69
2022-08-05T12:58:50.805Z,94485.69
2022-08-05T13:01:59.711Z,94485.69
2022-08-05T13:03:24.809Z,94482.50
2022-08-05T13:05:59.301Z,94479.03
2022-08-05T13:08:29.855Z,94477.16
2022-08-05T13:11:04.775Z,94480.91
2022-08-05T13:14:05.398Z,94475.56
2022-08-05T13:16:19.599Z,94468.63
2022-08-05T13:18:58.801Z,94469.41
2022-08-05T13:21:28.396Z,94472.88
2022-08-05T13:24:05.457Z,94468.31
2022-08-05T13:26:32.088Z,94478.25
2022-08-05T13:28:59.012Z,94468.63
2022-08-05T13:32:02.872Z,94464.84
2022-08-05T13:34:22.357Z,94471.28
2022-08-05T13:36:53.205Z,94462.44
2022-08-05T13:39:24.337Z,94459.75
2022-08-05T13:42:06.951Z,94456.31
2022-08-05T13:44:34.751Z,94458.69
2022-08-05T13:47:08.608Z,94462.44
2022-08-05T13:49:36.128Z,94457.91
2022-08-05T13:52:16.259Z,94457.09
2022-08-05T13:54:43.056Z,94457.91
2022-08-05T13:57:20.168Z,94460.28
2022-08-05T13:59:57.192Z,94451.72
2022-08-05T14:02:26.708Z,94455.72
2022-08-05T14:05:29.523Z,94454.91
2022-08-05T14:08:08.724Z,94440.72
2022-08-05T14:10:47.255Z,94443.41
2022-08-05T14:13:15.525Z,94438.84
2022-08-05T14:16:05.835Z,94445.00
2022-08-05T14:18:28.980Z,94435.38
2022-08-05T14:20:55.672Z,94433.47
2022-08-05T14:23:25.748Z,94432.69
2022-08-05T14:25:58.695Z,94433.47
2022-08-05T14:28:27.945Z,94434.28
2022-08-05T14:30:55.644Z,94428.94
2022-08-05T14:33:23.975Z,94427.84
2022-08-05T14:35:51.828Z,94423.56
2022-08-05T14:38:32.557Z,94425.16
2022-08-05T14:41:06.132Z,94423.56
2022-08-05T14:43:59.272Z,94421.41
2022-08-05T14:46:22.484Z,94416.31
2022-08-05T14:48:55.369Z,94412.84
2022-08-05T14:51:22.126Z,94410.69
2022-08-05T14:54:06.641Z,94408.28
2022-08-05T14:56:44.381Z,94406.41
2022-08-05T14:59:14.085Z,94413.63
2022-08-05T15:01:48.262Z,94407.50
2022-08-05T15:04:16.113Z,94404.50
2022-08-05T15:06:49.402Z,94407.50
2022-08-05T15:09:16.700Z,94410.19
2022-08-05T15:12:03.997Z,94401.06
2022-08-05T15:14:36.037Z,94401.06
2022-08-05T15:17:44.582Z,94396.78
2022-08-05T15:19:56.382Z,94387.66
2022-08-05T15:22:27.102Z,94390.03
2022-08-05T15:24:54.904Z,94393.53
2022-08-05T15:27:21.531Z,94397.28
2022-08-05T15:29:52.133Z,94390.03
2022-08-05T15:32:20.961Z,94383.88
2022-08-05T15:34:54.281Z,94383.88
2022-08-05T15:38:33.410Z,94378.53
2022-08-05T15:41:00.569Z,94383.88
2022-08-05T15:43:09.155Z,94380.13
2022-08-05T15:45:45.807Z,94381.72
2022-08-05T15:48:14.417Z,94373.94
2022-08-05T15:50:43.645Z,94380.13
2022-08-05T15:53:12.506Z,94374.50
2022-08-05T15:56:01.852Z,94372.88
2022-08-05T15:58:28.238Z,94379.31
2022-08-05T16:01:11.834Z,94385.47
2022-08-05T16:03:42.298Z,94384.66
2022-08-05T16:06:11.505Z,94384.41
2022-08-05T16:08:38.476Z,94377.44
2022-08-05T16:11:05.214Z,94379.31
2022-08-05T16:13:34.701Z,94378.53
2022-08-05T16:16:05.030Z,94385.47
2022-08-05T16:18:34.909Z,94384.41
2022-08-05T16:21:18.589Z,94385.47
2022-08-05T16:23:54.172Z,94381.22
2022-08-05T16:26:26.641Z,94382.81
2022-08-05T16:28:54.384Z,94390.84
2022-08-05T16:31:21.229Z,94380.13
2022-08-05T16:33:47.928Z,94378.81
2022-08-05T16:36:14.781Z,94383.88
2022-08-05T16:38:54.751Z,94382.28
2022-08-05T16:42:12.491Z,94381.47
2022-08-05T16:44:16.475Z,94388.44
2022-08-05T16:46:55.361Z,94389.25
2022-08-05T16:49:22.929Z,94393.00
2022-08-05T16:51:50.940Z,94394.09
2022-08-05T16:54:25.799Z,94398.38
2022-08-05T16:56:55.459Z,94393.00
2022-08-05T16:59:22.668Z,94402.13
2022-08-05T17:01:53.506Z,94398.38
2022-08-05T17:04:26.664Z,94395.97
2022-08-05T17:06:55.401Z,94390.34
2022-08-05T17:09:23.151Z,94393.00
2022-08-05T17:11:54.696Z,94404.50
2022-08-05T17:14:37.613Z,94399.47
2022-08-05T17:17:06.176Z,94404.81
2022-08-05T17:19:32.832Z,94402.91
2022-08-05T17:22:00.888Z,94404.81
2022-08-05T17:24:38.578Z,94409.09
2022-08-05T17:27:07.222Z,94418.22
2022-08-05T17:29:41.254Z,94407.50
2022-08-05T17:32:11.240Z,94416.63
2022-08-05T17:34:38.788Z,94416.63
2022-08-05T17:37:29.375Z,94420.09
2022-08-05T17:39:55.871Z,94421.41
2022-08-05T17:42:27.012Z,94423.56
2022-08-05T17:44:56.948Z,94417.72
2022-08-05T17:47:23.796Z,94419.31
2022-08-05T17:49:59.651Z,94416.63
2022-08-05T17:52:30.523Z,94421.97
2022-08-05T17:54:57.824Z,94415.03
2022-08-05T17:57:24.681Z,94422.75
2022-08-05T18:00:03.106Z,94420.38
2022-08-05T18:02:30.566Z,94421.97
2022-08-05T18:04:57.995Z,94425.75
2022-08-05T18:07:25.442Z,94427.34
2022-08-05T18:10:02.014Z,94434.28
2022-08-05T18:12:36.411Z,94433.47
2022-08-05T18:15:03.107Z,94445.00
2022-08-05T18:18:01.415Z,94438.06
2022-08-05T18:20:19.553Z,94443.41
2022-08-05T18:22:57.315Z,94449.84
2022-08-05T18:25:25.107Z,94454.13
2022-08-05T18:27:52.802Z,94453.31
2022-08-05T18:30:19.743Z,94450.63
2022-08-05T18:32:53.123Z,94447.19
2022-08-05T18:35:20.460Z,94456.81
2022-08-05T18:38:07.567Z,94456.81
2022-08-05T18:41:57.044Z,94447.97
2022-08-05T18:43:23.948Z,94450.94
2022-08-05T18:45:50.612Z,94458.69
2022-08-05T18:48:31.272Z,94457.91
2022-08-05T18:52:04.098Z,94456.31
2022-08-05T18:54:06.647Z,94459.50
2022-08-05T18:56:35.659Z,94464.84
2022-08-05T18:59:41.786Z,94457.91
2022-08-05T19:01:57.118Z,94463.25
2022-08-05T19:04:25.332Z,94471.28
2022-08-05T19:06:53.620Z,94467.03
2022-08-05T19:09:21.173Z,94469.41
2022-08-05T19:12:00.129Z,94466.19
2022-08-05T19:14:37.780Z,94473.97
2022-08-05T19:17:12.876Z,94472.38
2022-08-05T19:19:46.508Z,94461.66
2022-08-05T19:22:22.781Z,94472.38
2022-08-05T19:25:00.322Z,94463.25
2022-08-05T19:27:30.495Z,94462.44
2022-08-05T19:29:57.722Z,94458.97
2022-08-05T19:32:26.100Z,94461.66
2022-08-05T19:34:55.858Z,94466.19
2022-08-05T19:37:35.220Z,94466.47
2022-08-05T19:40:10.963Z,94467.03
2022-08-05T19:42:38.888Z,94459.50
2022-08-05T19:45:07.168Z,94464.34
2022-08-05T19:47:37.115Z,94465.94
2022-08-05T19:50:04.856Z,94464.34
2022-08-05T19:52:34.653Z,94466.19
2022-08-05T19:55:08.894Z,94465.41
2022-08-05T19:58:07.060Z,94466.19
2022-08-05T20:00:36.506Z,94466.47
2022-08-05T20:03:05.427Z,94471.56
2022-08-05T20:05:49.804Z,94468.88
2022-08-05T20:08:17.290Z,94465.41
2022-08-05T20:10:43.895Z,94466.19
2022-08-05T20:13:12.145Z,94463.81
2022-08-05T20:15:52.219Z,94470.75
2022-08-05T20:18:34.030Z,94466.19
2022-08-05T20:21:04.775Z,94454.69
2022-08-05T20:23:40.240Z,94463.81
2022-08-05T20:26:17.717Z,94456.56
2022-08-05T20:28:56.808Z,94457.34
2022-08-05T20:31:36.943Z,94460.03
2022-08-05T20:34:07.389Z,94463.81
2022-08-05T20:36:35.235Z,94459.25
2022-08-05T20:39:05.820Z,94453.91
2022-08-05T20:41:44.606Z,94460.03
2022-08-05T20:44:29.891Z,94458.44
2022-08-05T20:47:01.416Z,94458.44
2022-08-05T20:49:28.265Z,94456.84
2022-08-05T20:51:58.446Z,94449.31
2022-08-05T20:54:43.329Z,94447.72
2022-08-05T20:57:14.406Z,94450.41
2022-08-05T21:00:10.491Z,94449.31
2022-08-05T21:02:27.872Z,94447.72
2022-08-05T21:04:55.347Z,94454.69
2022-08-05T21:07:24.007Z,94447.72
2022-08-05T21:09:53.811Z,94443.44
2022-08-05T21:12:21.046Z,94442.38
2022-08-05T21:14:47.633Z,94446.94
2022-08-05T21:17:14.332Z,94447.22
2022-08-05T21:19:47.183Z,94451.50
2022-08-05T21:22:21.641Z,94445.34
2022-08-05T21:24:51.495Z,94448.81
2022-08-05T21:27:20.525Z,94444.53
2022-08-05T21:29:52.285Z,94453.09
2022-08-05T21:32:20.898Z,94446.94
2022-08-05T21:35:08.184Z,94451.50
2022-08-05T21:37:41.239Z,94452.56
2022-08-05T21:40:13.613Z,94446.13
2022-08-05T21:42:44.412Z,94448.31
2022-08-05T21:45:11.679Z,94449.13
2022-08-05T21:47:56.054Z,94447.22
2022-08-05T21:50:25.350Z,94451.50
2022-08-05T21:52:52.064Z,94454.16
2022-08-05T21:55:42.965Z,94447.72
2022-08-05T21:58:06.330Z,94454.69
2022-08-05T22:00:33.001Z,94452.53
2022-08-05T22:03:00.610Z,94444.50
2022-08-05T22:05:27.562Z,94436.47
2022-08-05T22:08:01.998Z,94445.00
2022-08-05T22:10:29.122Z,94445.50
2022-08-05T22:12:57.507Z,94442.84
2022-08-05T22:16:04.734Z,94442.25
2022-08-05T22:18:12.851Z,94442.53
2022-08-05T22:20:41.436Z,94442.84
2022-08-05T22:24:01.854Z,94444.44
2022-08-05T22:26:33.608Z,94442.53
2022-08-05T22:29:00.325Z,94442.84
2022-08-05T22:31:29.925Z,94439.06
2022-08-05T22:34:01.082Z,94432.13
2022-08-05T22:36:28.365Z,94448.19
2022-08-05T22:38:55.848Z,94442.84
2022-08-05T22:42:04.200Z,94446.59
2022-08-05T22:44:10.227Z,94447.38
2022-08-05T22:46:40.047Z,94442.31
2022-08-05T22:49:23.620Z,94438.84
2022-08-05T22:52:04.479Z,94433.47
2022-08-05T22:54:35.014Z,94428.94
2022-08-05T22:57:01.676Z,94438.06
2022-08-05T22:59:45.400Z,94436.47
2022-08-05T23:02:17.628Z,94442.59
2022-08-05T23:04:52.269Z,94434.34
2022-08-05T23:07:22.426Z,94443.97
2022-08-05T23:09:57.198Z,94435.41
2022-08-05T23:12:25.441Z,94437.00
2022-08-05T23:14:55.377Z,94428.47
2022-08-05T23:17:32.625Z,94431.97
2022-08-05T23:20:02.355Z,94435.41
2022-08-05T23:22:29.358Z,94425.00
2022-08-05T23:24:57.544Z,94441.59
2022-08-05T23:27:24.374Z,94439.19
2022-08-05T23:29:58.200Z,94444.53
2022-08-05T23:32:26.931Z,94440.78
2022-08-05T23:34:53.915Z,94439.19
2022-08-05T23:37:20.519Z,94443.19
2022-08-05T23:39:53.527Z,94444.53
2022-08-05T23:42:23.480Z,94428.47
2022-08-05T23:44:56.389Z,94439.19
2022-08-05T23:47:26.319Z,94435.41
2022-08-05T23:49:55.705Z,94439.19
2022-08-05T23:52:26.575Z,94442.16
2022-08-05T23:54:57.269Z,94443.75
2022-08-05T23:57:24.601Z,94439.75
